^^
Grace C. Lehan Memorial Weather Station Historical Data
Daily Summary for September 18, 2022 Units:  English    Metric   Both
Daily Weekly Monthly Yearly
  High: Low: Average:
Temperature: 84 °F 59.1 °F 73 °F
Dew Point: 69.4 °F 56.2 °F 64.8 °F
Humidity: 96% 57.1% 77%
Wind Speed: 3mph 0mph 0.3mph
Wind Gust: 15mph - -
Wind- - WSW
Pressure: 30.12 in 29.89 in -
Precipitation: 0.00 in    
 
 
Tabular Data for September 18, 2022
Time Temperature Dew Point Pressure Wind Wind Speed Wind Gust Humidity Rainfall Rate (Hourly) solar
00:04 59.3 °F 56.4 °F 30.11 in Calm     90% 0.00 in 0 W/m2
00:09 59.3 °F 56.4 °F 30.12 in Calm     90% 0.00 in 0 W/m2
00:14 59.3 °F 56.3 °F 30.11 in Calm     90% 0.00 in 0 W/m2
00:19 59.2 °F 56.3 °F 30.11 in Calm     90% 0.00 in 0 W/m2
00:24 59.2 °F 56.3 °F 30.11 in Calm     90% 0.00 in 0 W/m2
00:29 59.2 °F 56.2 °F 30.11 in Calm     90% 0.00 in 0 W/m2
00:34 59.2 °F 56.4 °F 30.11 in Calm     90.4% 0.00 in 0 W/m2
00:39 59.2 °F 56.6 °F 30.11 in Calm     91% 0.00 in 0 W/m2
00:43 59.3 °F 56.7 °F 30.11 in Calm     91% 0.00 in 0 W/m2
01:00 59.7 °F 57.4 °F 30.11 in Calm     92% 0.00 in 0 W/m2
01:30 59.8 °F 57.5 °F 30.10 in Calm     92% 0.00 in 0 W/m2
02:00 59.9 °F 57.9 °F 30.08 in Calm     93% 0.00 in 0 W/m2
02:30 59.9 °F 57.9 °F 30.08 in Calm     93% 0.00 in 0 W/m2
03:00 60.1 °F 58.4 °F 30.07 in Calm     94% 0.00 in 0 W/m2
03:30 60.1 °F 58.4 °F 30.06 in Calm     94% 0.00 in 0 W/m2
04:04 59.7 °F 58 °F 30.06 in Calm     94% 0.00 in 0 W/m2
04:09 59.7 °F 57.9 °F 30.06 in Calm     94% 0.00 in 0 W/m2
04:14 59.6 °F 57.9 °F 30.05 in Calm     94% 0.00 in 0 W/m2
04:19 59.5 °F 57.8 °F 30.05 in Calm     94% 0.00 in 0 W/m2
04:24 59.5 °F 57.8 °F 30.05 in Calm     94% 0.00 in 0 W/m2
04:29 59.6 °F 58 °F 30.05 in Calm     94.5% 0.00 in 0 W/m2
04:34 59.6 °F 58.1 °F 30.05 in Calm     94.9% 0.00 in 0 W/m2
04:39 59.6 °F 57.9 °F 30.04 in Calm     94% 0.00 in 0 W/m2
04:44 59.5 °F 57.8 °F 30.05 in Calm     94% 0.00 in 0 W/m2
04:49 59.5 °F 57.7 °F 30.04 in Calm     94% 0.00 in 0 W/m2
04:54 59.4 °F 57.7 °F 30.04 in Calm     94% 0.00 in 0 W/m2
04:59 59.3 °F 57.6 °F 30.04 in Calm     94% 0.00 in 0 W/m2
05:04 59.2 °F 57.5 °F 30.04 in Calm     94% 0.00 in 0 W/m2
05:09 59.1 °F 57.4 °F 30.04 in Calm     94% 0.00 in 0 W/m2
05:14 59.1 °F 57.4 °F 30.04 in Calm     94.2% 0.00 in 0 W/m2
05:19 59.1 °F 57.7 °F 30.04 in Calm     95% 0.00 in 0 W/m2
05:24 59.1 °F 57.7 °F 30.04 in Calm     95% 0.00 in 0 W/m2
05:29 59.3 °F 57.9 °F 30.04 in Calm     95% 0.00 in 0 W/m2
05:34 59.6 °F 58.2 °F 30.04 in Calm     95% 0.00 in 0 W/m2
05:39 60.1 °F 58.9 °F 30.04 in Calm     96% 0.00 in 0 W/m2
05:44 60.6 °F 59.5 °F 30.03 in Calm     96% 0.00 in 0 W/m2
05:49 61 °F 59.9 °F 30.03 in Calm     96% 0.00 in 0 W/m2
05:54 61.2 °F 60.1 °F 30.03 in Calm     96% 0.00 in 0 W/m2
05:59 61.4 °F 60.2 °F 30.03 in Calm     96% 0.00 in 0 W/m2
06:04 61.4 °F 60.2 °F 30.03 in Calm     95.6% 0.00 in 0 W/m2
06:09 61.5 °F 60.1 °F 30.03 in Calm     95% 0.00 in 0 W/m2
06:14 61.5 °F 60.1 °F 30.03 in Calm   1 mph 95% 0.00 in 0 W/m2
06:19 61.6 °F 60.2 °F 30.03 in Calm   1 mph 95% 0.00 in 0 W/m2
06:24 61.6 °F 60.1 °F 30.03 in Calm   1 mph 95% 0.00 in 0 W/m2
06:29 61.5 °F 60.1 °F 30.03 in Calm   1 mph 95% 0.00 in 0 W/m2
06:34 61.5 °F 60.1 °F 30.03 in Calm   1 mph 95% 0.00 in 0 W/m2
06:39 61.4 °F 60 °F 30.03 in Calm     95% 0.00 in 5 W/m2
06:44 61.4 °F 60 °F 30.03 in Calm     95% 0.00 in 7 W/m2
06:49 61.4 °F 60 °F 30.03 in Calm     95% 0.00 in 12 W/m2
06:54 61.4 °F 60 °F 30.03 in Calm     95% 0.00 in 16 W/m2
06:59 61.4 °F 60 °F 30.03 in Calm     95% 0.00 in 19 W/m2
07:04 61.5 °F 60.1 °F 30.03 in Calm     95% 0.00 in 25 W/m2
07:09 61.6 °F 60.1 °F 30.03 in Calm     95% 0.00 in 28 W/m2
07:14 61.6 °F 60.4 °F 30.03 in Calm     95.8% 0.00 in 32 W/m2
07:19 61.7 °F 60.6 °F 30.03 in Calm     96% 0.00 in 44 W/m2
07:24 61.9 °F 60.7 °F 30.03 in Calm     96% 0.00 in 44 W/m2
07:29 62 °F 60.9 °F 30.04 in Calm     96% 0.00 in 44 W/m2
07:34 62.2 °F 61.1 °F 30.04 in Calm     96% 0.00 in 58 W/m2
07:39 62.4 °F 61.2 °F 30.03 in Calm     96% 0.00 in 58 W/m2
07:44 62.5 °F 61.4 °F 30.03 in Calm     96% 0.00 in 56 W/m2
07:49 62.7 °F 61.5 °F 30.03 in Calm     96% 0.00 in 62 W/m2
07:54 62.9 °F 61.7 °F 30.03 in Calm     96% 0.00 in 74 W/m2
07:59 63 °F 61.8 °F 30.03 in Calm     96% 0.00 in 74 W/m2
08:04 63.2 °F 62 °F 30.03 in Calm     96% 0.00 in 74 W/m2
08:09 63.3 °F 62.1 °F 30.03 in Calm     96% 0.00 in 81 W/m2
08:14 63.5 °F 62.2 °F 30.03 in Calm     95.3% 0.00 in 88 W/m2
08:19 63.7 °F 62.5 °F 30.03 in Calm     95.8% 0.00 in 95 W/m2
08:24 64 °F 62.6 °F 30.03 in Calm     95% 0.00 in 100 W/m2
08:29 64.4 °F 62.9 °F 30.03 in Calm     95% 0.00 in 104 W/m2
08:34 64.7 °F 63.2 °F 30.03 in Calm     95% 0.00 in 105 W/m2
08:39 65 °F 63.5 °F 30.03 in Calm     95% 0.00 in 109 W/m2
08:44 65.4 °F 63.9 °F 30.03 in Calm     95% 0.00 in 116 W/m2
08:49 65.8 °F 64.1 °F 30.03 in Calm     94.2% 0.00 in 125 W/m2
08:54 66.2 °F 64.3 °F 30.03 in SE 0.1 mph 1 mph 93.6% 0.00 in 271 W/m2
08:59 66.6 °F 64.4 °F 30.03 in SSW 1.1 mph 12 mph 92.4% 0.00 in 332 W/m2
09:04 67.3 °F 64.4 °F 30.03 in WSW 1.3 mph 12 mph 90.5% 0.00 in 343 W/m2
09:09 68.2 °F 64.6 °F 30.03 in SW 1.2 mph 10 mph 88.3% 0.00 in 343 W/m2
09:14 69.2 °F 64.9 °F 30.03 in WSW 0.1 mph 10 mph 86.1% 0.00 in 362 W/m2
09:19 70.1 °F 65 °F 30.03 in West 0.6 mph 10 mph 83.9% 0.00 in 403 W/m2
09:24 71 °F 65.4 °F 30.03 in West 0.4 mph 10 mph 82.4% 0.00 in 417 W/m2
09:29 72 °F 65.7 °F 30.03 in WSW 0.5 mph 10 mph 80.6% 0.00 in 434 W/m2
09:34 72.8 °F 65.7 °F 30.02 in WSW 1.1 mph 11 mph 78.5% 0.00 in 455 W/m2
09:39 73.5 °F 65.8 °F 30.02 in SW 0.4 mph 11 mph 76.8% 0.00 in 473 W/m2
09:44 74.3 °F 66.3 °F 30.02 in WSW 0.9 mph 11 mph 76.2% 0.00 in 490 W/m2
09:49 75 °F 66.3 °F 30.02 in SW 1.3 mph 11 mph 74.5% 0.00 in 501 W/m2
09:54 75.6 °F 66.1 °F 30.02 in WSW 1.2 mph 11 mph 72.4% 0.00 in 517 W/m2
09:59 75.9 °F 66 °F 30.02 in WSW 1.9 mph 11 mph 71.5% 0.00 in 522 W/m2
10:04 76.1 °F 66.3 °F 30.02 in WSW 3 mph 12 mph 71.6% 0.00 in 540 W/m2
10:09 76.4 °F 66.4 °F 30.02 in WSW 2.4 mph 12 mph 71.4% 0.00 in 552 W/m2
10:14 76.5 °F 66.2 °F 30.02 in WSW 1.5 mph 12 mph 70.5% 0.00 in 564 W/m2
10:19 76.4 °F 65.8 °F 30.01 in SW 2.2 mph 15 mph 69.6% 0.00 in 582 W/m2
10:24 76.6 °F 66.4 °F 30.01 in WSW 1 mph 15 mph 70.8% 0.00 in 591 W/m2
10:29 77 °F 66.9 °F 30.01 in West 0.3 mph 15 mph 71.1% 0.00 in 603 W/m2
10:34 77.5 °F 66.7 °F 30.00 in SW 0.8 mph 15 mph 69.4% 0.00 in 608 W/m2
10:39 77.9 °F 67 °F 30.00 in WSW 1 mph 10 mph 69.2% 0.00 in 603 W/m2
10:44 78.4 °F 67.5 °F 30.00 in West 0.3 mph 10 mph 69.1% 0.00 in 626 W/m2
10:49 78.8 °F 67.2 °F 30.00 in SW 0.2 mph 10 mph 67.5% 0.00 in 636 W/m2
10:54 79.3 °F 67.7 °F 30.00 in WSW 0.8 mph 10 mph 67.9% 0.00 in 652 W/m2
10:57 79.6 °F 67.3 °F 30.00 in Calm   10 mph 66.1% 0.00 in 656 W/m2
11:00 80 °F 68.5 °F 30.00 in WSW 1 mph 10 mph 68% 0.00 in 626 W/m2
11:30 81.7 °F 67.4 °F 29.99 in WSW 1 mph 11 mph 62% 0.00 in 680 W/m2
12:04 80.8 °F 68.2 °F 29.99 in West 0.6 mph 11 mph 65.4% 0.00 in 680 W/m2
12:09 80.7 °F 68.2 °F 29.97 in West 0.1 mph 3 mph 65.9% 0.00 in 128 W/m2
12:14 80.6 °F 68.1 °F 29.98 in West 0.1 mph 3 mph 65.7% 0.00 in 130 W/m2
12:19 80.6 °F 68.4 °F 29.98 in Calm   3 mph 66.4% 0.00 in 227 W/m2
12:24 80.5 °F 68.2 °F 29.97 in WSW 1.1 mph 7 mph 66.2% 0.00 in 257 W/m2
12:29 80.6 °F 68.4 °F 29.97 in WSW 0.1 mph 7 mph 66.3% 0.00 in 257 W/m2
12:34 80.8 °F 68.8 °F 29.97 in WSW 0.3 mph 7 mph 66.8% 0.00 in 355 W/m2
12:39 81 °F 68.8 °F 29.97 in WSW 0.3 mph 5 mph 66.6% 0.00 in 262 W/m2
12:44 81.2 °F 68.9 °F 29.97 in Calm   5 mph 66.4% 0.00 in 151 W/m2
12:49 81.3 °F 69.1 °F 29.97 in WSW 0.2 mph 5 mph 66.6% 0.00 in 114 W/m2
12:54 81.5 °F 69 °F 29.97 in SW 0.1 mph 5 mph 65.9% 0.00 in 118 W/m2
12:59 81.5 °F 68.7 °F 29.96 in SW 0.4 mph 5 mph 65.2% 0.00 in 155 W/m2
13:04 81.6 °F 68.8 °F 29.96 in SW 0.7 mph 5 mph 65.3% 0.00 in 399 W/m2
13:09 81.7 °F 68.9 °F 29.96 in SW 0.7 mph 6 mph 65.3% 0.00 in 399 W/m2
13:14 81.7 °F 68.3 °F 29.96 in SW 1.3 mph 8 mph 63.9% 0.00 in 237 W/m2
13:19 81.8 °F 68.8 °F 29.96 in West 0.7 mph 8 mph 64.7% 0.00 in 237 W/m2
13:24 81.9 °F 69 °F 29.95 in WSW 0.6 mph 8 mph 64.9% 0.00 in 135 W/m2
13:29 82 °F 69.4 °F 29.95 in WSW 0.4 mph 8 mph 65.7% 0.00 in 114 W/m2
13:34 82.2 °F 69.2 °F 29.95 in SW 0.3 mph 8 mph 65% 0.00 in 181 W/m2
13:39 82.3 °F 69.1 °F 29.95 in WSW 0.2 mph 4 mph 64.5% 0.00 in 174 W/m2
13:44 82.4 °F 68.9 °F 29.95 in SW 1.7 mph 7 mph 63.7% 0.00 in 113 W/m2
13:49 82.4 °F 68.7 °F 29.95 in WSW 0.2 mph 7 mph 63.3% 0.00 in 107 W/m2
13:54 82.4 °F 69 °F 29.94 in WSW 0.2 mph 7 mph 63.8% 0.00 in 104 W/m2
13:59 82.5 °F 68.9 °F 29.94 in SW 0.6 mph 7 mph 63.5% 0.00 in 111 W/m2
14:04 82.5 °F 68.8 °F 29.94 in SW 0.7 mph 7 mph 63.4% 0.00 in 105 W/m2
14:09 82.5 °F 69 °F 29.94 in WSW 0.8 mph 5 mph 63.8% 0.00 in 102 W/m2
14:14 82.5 °F 68.7 °F 29.94 in WSW 0.7 mph 7 mph 63.1% 0.00 in 102 W/m2
14:19 82.5 °F 69 °F 29.93 in WSW 0.8 mph 7 mph 63.7% 0.00 in 113 W/m2
14:24 82.6 °F 69.4 °F 29.93 in WSW 0.1 mph 7 mph 64.5% 0.00 in 139 W/m2
14:29 82.7 °F 69.3 °F 29.93 in WSW 0.6 mph 7 mph 64% 0.00 in 116 W/m2
14:34 82.8 °F 69.1 °F 29.93 in Calm   7 mph 63.3% 0.00 in 104 W/m2
14:39 83 °F 69.3 °F 29.93 in WSW 0.5 mph 7 mph 63.4% 0.00 in 130 W/m2
14:44 83.1 °F 69.1 °F 29.93 in WSW 0.9 mph 7 mph 62.8% 0.00 in 239 W/m2
14:49 83.2 °F 69.1 °F 29.92 in WSW 0.8 mph 10 mph 62.5% 0.00 in 466 W/m2
14:54 83.4 °F 68.1 °F 29.92 in WSW 1.9 mph 10 mph 60.1% 0.00 in 123 W/m2
14:59 83.4 °F 67.6 °F 29.92 in SW 1.8 mph 10 mph 59% 0.00 in 121 W/m2
15:04 83.4 °F 67.3 °F 29.92 in WSW 0.5 mph 7 mph 58.5% 0.00 in 165 W/m2
15:09 83.4 °F 67.9 °F 29.92 in West 0.1 mph 7 mph 59.8% 0.00 in 190 W/m2
15:14 83.5 °F 68 °F 29.92 in WSW 1.1 mph 7 mph 59.7% 0.00 in 394 W/m2
15:19 83.5 °F 67.6 °F 29.91 in SW 1.8 mph 13 mph 58.8% 0.00 in 575 W/m2
15:24 83.5 °F 67.4 °F 29.91 in WSW 0.6 mph 13 mph 58.5% 0.00 in 573 W/m2
15:29 83.6 °F 67.7 °F 29.91 in WSW 0.5 mph 13 mph 58.8% 0.00 in 429 W/m2
15:34 83.7 °F 67.4 °F 29.91 in WSW 1.6 mph 13 mph 58.1% 0.00 in 515 W/m2
15:39 83.9 °F 67.6 °F 29.91 in SW 0.4 mph 11 mph 58.1% 0.00 in 504 W/m2
15:44 83.9 °F 67.1 °F 29.91 in SW 0.7 mph 11 mph 57.1% 0.00 in 404 W/m2
15:49 84 °F 67.6 °F 29.91 in West 0.5 mph 11 mph 57.8% 0.00 in 464 W/m2
15:54 84 °F 67.5 °F 29.91 in WSW 0.2 mph 11 mph 57.8% 0.00 in 464 W/m2
15:59 83.9 °F 67.1 °F 29.91 in WSW 0.1 mph 11 mph 57.2% 0.00 in 90 W/m2
16:09 83.6 °F 67.6 °F 29.90 in Calm   1 mph 58.7% 0.00 in 81 W/m2
16:14 83.5 °F 67.7 °F 29.90 in WSW 0.4 mph 9 mph 59% 0.00 in 77 W/m2
16:19 83.4 °F 67.4 °F 29.90 in SW 0.4 mph 9 mph 58.6% 0.00 in 76 W/m2
16:24 83.3 °F 67.1 °F 29.90 in Calm   9 mph 58.2% 0.00 in 70 W/m2
16:29 83.3 °F 67.8 °F 29.90 in Calm   9 mph 59.7% 0.00 in 70 W/m2
16:34 83.2 °F 67.6 °F 29.90 in WSW 0.5 mph 9 mph 59.3% 0.00 in 74 W/m2
16:39 83.2 °F 67.4 °F 29.90 in WSW 0.8 mph 9 mph 59% 0.00 in 77 W/m2
16:44 83.1 °F 67.3 °F 29.90 in SW 0.8 mph 11 mph 59% 0.00 in 76 W/m2
16:49 83.1 °F 67.3 °F 29.90 in WSW 0.7 mph 11 mph 59% 0.00 in 69 W/m2
16:54 83 °F 67.2 °F 29.90 in West 0.1 mph 11 mph 59% 0.00 in 62 W/m2
16:59 82.9 °F 67.5 °F 29.90 in WSW 0.2 mph 11 mph 59.8% 0.00 in 56 W/m2
17:04 82.8 °F 67.3 °F 29.90 in WSW 0.5 mph 11 mph 59.6% 0.00 in 54 W/m2
17:09 82.6 °F 67.1 °F 29.90 in WSW 0.2 mph 6 mph 59.5% 0.00 in 53 W/m2
17:14 82.4 °F 67.2 °F 29.89 in West 0.1 mph 6 mph 60.1% 0.00 in 53 W/m2
17:19 82.2 °F 67 °F 29.89 in SW 0.1 mph 6 mph 60.1% 0.00 in 49 W/m2
17:24 82.1 °F 67.3 °F 29.89 in West 0.3 mph 6 mph 61% 0.00 in 47 W/m2
17:29 82.1 °F 67.3 °F 29.89 in WSW 0.7 mph 9 mph 61% 0.00 in 44 W/m2
17:34 82 °F 67.2 °F 29.89 in Calm   9 mph 61% 0.00 in 40 W/m2
17:39 81.8 °F 67.1 °F 29.89 in WSW 0.1 mph 1 mph 61% 0.00 in 37 W/m2
17:44 81.7 °F 67.1 °F 29.89 in WSW 0.4 mph 6 mph 61.4% 0.00 in 33 W/m2
17:49 81.5 °F 67.1 °F 29.89 in West 0.1 mph 6 mph 61.6% 0.00 in 32 W/m2
17:54 81.3 °F 67.1 °F 29.89 in Calm   6 mph 62% 0.00 in 30 W/m2
17:59 81.1 °F 66.9 °F 29.89 in Calm   6 mph 62% 0.00 in 30 W/m2
18:04 80.9 °F 66.7 °F 29.89 in Calm   6 mph 62% 0.00 in 30 W/m2
18:09 80.7 °F 66.8 °F 29.89 in Calm     62.7% 0.00 in 28 W/m2
18:14 80.6 °F 66.8 °F 29.89 in Calm   2 mph 63% 0.00 in 28 W/m2
18:19 80.4 °F 67.1 °F 29.89 in Calm   2 mph 64% 0.00 in 26 W/m2
18:24 80.2 °F 66.9 °F 29.90 in Calm   2 mph 64% 0.00 in 21 W/m2
18:29 79.9 °F 66.7 °F 29.90 in Calm   2 mph 64% 0.00 in 16 W/m2
18:34 79.7 °F 66.5 °F 29.90 in Calm   2 mph 64% 0.00 in 12 W/m2
18:39 79.5 °F 66.4 °F 29.90 in Calm     64.2% 0.00 in 9 W/m2
18:44 79.3 °F 66.6 °F 29.90 in Calm     65% 0.00 in 7 W/m2
18:49 79.1 °F 66.4 °F 29.90 in Calm     65% 0.00 in 0 W/m2
18:54 79 °F 66.5 °F 29.90 in Calm     65.7% 0.00 in 0 W/m2
18:59 78.7 °F 66.6 °F 29.90 in Calm     66.5% 0.00 in 0 W/m2
19:04 78.5 °F 66.7 °F 29.90 in Calm     67.1% 0.00 in 0 W/m2
19:09 78.3 °F 66.9 °F 29.89 in Calm     68% 0.00 in 0 W/m2
19:14 78.1 °F 66.6 °F 29.89 in Calm     68% 0.00 in 0 W/m2
19:19 77.9 °F 66.5 °F 29.89 in Calm     68% 0.00 in 0 W/m2
19:24 77.7 °F 66.7 °F 29.89 in Calm     69% 0.00 in 0 W/m2
19:29 77.5 °F 66.6 °F 29.89 in Calm   1 mph 69% 0.00 in 0 W/m2
19:34 77.3 °F 66.7 °F 29.90 in Calm   1 mph 69.8% 0.00 in 0 W/m2
19:39 77.1 °F 66.5 °F 29.90 in Calm     69.8% 0.00 in 0 W/m2
19:44 77 °F 66.5 °F 29.90 in Calm     70% 0.00 in 0 W/m2
19:49 77 °F 66.5 °F 29.90 in Calm     70% 0.00 in 0 W/m2
19:54 77 °F 66.5 °F 29.91 in Calm     70% 0.00 in 0 W/m2
19:58 76.9 °F 66.4 °F 29.91 in Calm     70% 0.00 in 0 W/m2
20:09 76.7 °F 66.5 °F 29.91 in Calm     70.7% 0.00 in 0 W/m2
20:14 76.6 °F 66.5 °F 29.91 in Calm     71% 0.00 in 0 W/m2
20:19 76.4 °F 66.6 °F 29.91 in Calm     71.7% 0.00 in 0 W/m2
20:24 76.3 °F 66.6 °F 29.91 in Calm     72% 0.00 in 0 W/m2
20:29 76.1 °F 66.8 °F 29.91 in Calm     72.9% 0.00 in 0 W/m2
20:34 76 °F 66.8 °F 29.91 in Calm     73% 0.00 in 0 W/m2
20:39 75.9 °F 66.6 °F 29.91 in Calm     73% 0.00 in 0 W/m2
20:44 75.8 °F 66.8 °F 29.91 in Calm     73.8% 0.00 in 0 W/m2
20:49 75.6 °F 66.7 °F 29.91 in Calm     74.1% 0.00 in 0 W/m2
20:54 75.4 °F 66.9 °F 29.91 in Calm     75% 0.00 in 0 W/m2
20:59 75.3 °F 66.9 °F 29.91 in Calm     75.3% 0.00 in 0 W/m2
21:04 75.1 °F 67 °F 29.91 in Calm     76% 0.00 in 0 W/m2
21:09 74.9 °F 66.8 °F 29.91 in Calm     76% 0.00 in 0 W/m2
21:14 74.8 °F 67 °F 29.91 in Calm     76.8% 0.00 in 0 W/m2
21:19 74.7 °F 67 °F 29.91 in Calm     77% 0.00 in 0 W/m2
21:24 74.5 °F 67.1 °F 29.91 in Calm     77.6% 0.00 in 0 W/m2
21:29 74.4 °F 67.1 °F 29.91 in Calm     78% 0.00 in 0 W/m2
21:34 74.3 °F 67 °F 29.91 in Calm     78% 0.00 in 0 W/m2
21:39 74.2 °F 66.9 °F 29.91 in Calm     78% 0.00 in 0 W/m2
21:44 74 °F 66.9 °F 29.91 in Calm     78.4% 0.00 in 0 W/m2
21:49 73.9 °F 67 °F 29.91 in Calm     79% 0.00 in 0 W/m2
21:54 73.8 °F 66.8 °F 29.91 in Calm     79% 0.00 in 0 W/m2
21:59 73.6 °F 67 °F 29.91 in Calm     79.7% 0.00 in 0 W/m2
22:04 73.5 °F 66.7 °F 29.91 in Calm     79.4% 0.00 in 0 W/m2
22:09 73.3 °F 66.5 °F 29.91 in Calm     79.1% 0.00 in 0 W/m2
22:14 73.2 °F 66.3 °F 29.91 in Calm     79% 0.00 in 0 W/m2
22:19 73 °F 66.2 °F 29.91 in Calm     79% 0.00 in 0 W/m2
22:24 72.9 °F 66 °F 29.91 in Calm     79% 0.00 in 0 W/m2
22:29 72.8 °F 66.2 °F 29.91 in Calm     79.8% 0.00 in 0 W/m2
22:34 72.7 °F 66 °F 29.90 in Calm     79.5% 0.00 in 0 W/m2
22:39 72.6 °F 66.1 °F 29.91 in Calm     80% 0.00 in 0 W/m2
22:44 72.5 °F 66 °F 29.91 in Calm     80% 0.00 in 0 W/m2
22:49 72.4 °F 65.9 °F 29.91 in Calm     80% 0.00 in 0 W/m2
22:54 72.4 °F 65.9 °F 29.90 in Calm     80% 0.00 in 0 W/m2
22:59 72.3 °F 65.8 °F 29.91 in Calm     80% 0.00 in 0 W/m2
23:04 72.2 °F 65.9 °F 29.91 in Calm     80.6% 0.00 in 0 W/m2
23:09 72.2 °F 66 °F 29.91 in Calm     81% 0.00 in 0 W/m2
23:14 72.1 °F 66 °F 29.91 in Calm     81% 0.00 in 0 W/m2
23:19 72.1 °F 65.9 °F 29.91 in Calm     81% 0.00 in 0 W/m2
23:24 72 °F 65.9 °F 29.91 in Calm     81% 0.00 in 0 W/m2
23:29 71.9 °F 65.8 °F 29.90 in Calm   1 mph 81% 0.00 in 0 W/m2
23:34 71.8 °F 65.7 °F 29.90 in Calm   1 mph 81% 0.00 in 0 W/m2
23:39 71.7 °F 65.8 °F 29.90 in Calm     81.5% 0.00 in 0 W/m2
23:44 71.6 °F 65.8 °F 29.90 in Calm   1 mph 82% 0.00 in 0 W/m2
23:49 71.5 °F 65.7 °F 29.90 in Calm   1 mph 82% 0.00 in 0 W/m2
23:54 71.4 °F 65.6 °F 29.89 in Calm   1 mph 82% 0.00 in 0 W/m2
23:59 71.2 °F 65.5 °F 29.89 in Calm   1 mph 82.2% 0.00 in 0 W/m2
Hartford County Weather
Compliments of Weather Underground - 4 mb